Create Tblcommutelog Verified Points Advance Search
| # | Trip ID | Id Commuter | Trip Date | Trip Num | Current Lat | Current Lng | Delta Distance | Current Time | Activity | Activity Confidence | Current Speed | |
|---|---|---|---|---|---|---|---|---|---|---|---|---|
| 72701 | 250512_780724_16648401_1846 | 780724 | (not set) | (not set) | 38.921910579725 | -77.10458756099 | 4.1256 | 2025-05-12 23:07:47.366 | on_bicycle | 100 | 3.9428862642717 | |
| 72702 | 250512_781293_0_1856 | 781293 | (not set) | (not set) | 38.885678117197 | -77.100052229471 | 0.8928 | 2025-05-12 23:07:48.326 | still | 33 | 2.2530778652981 | |
| 72703 | 250512_775368_16642832_1856 | 775368 | (not set) | (not set) | 38.932883472544 | -77.072464149937 | 1.4446 | 2025-05-12 23:07:51.366 | in_vehicle | 100 | 2.7492914427745 | |
| 72704 | 250512_783396_16651128_1742 | 783396 | (not set) | (not set) | 39.3225252 | -76.6185779 | 1.6468 | 2025-05-12 23:07:56.448 | walking | 100 | 0.62138456999294 | |
| 72705 | 250512_784703_16652698_1853 | 784703 | (not set) | (not set) | 39.016252013626 | -77.013579448349 | 14.379 | 2025-05-12 23:07:57.347 | unknown | 100 | 11.783954866916 | |
| 72706 | 250512_781333_16649006_1851 | 781333 | (not set) | (not set) | 38.93411623793 | -77.028456960839 | 2.4587 | 2025-05-12 23:08:02.218 | on_bicycle | 100 | 2.3201337541463 | |
| 72707 | 250512_780724_16648401_1846 | 780724 | (not set) | (not set) | 38.922688892826 | -77.106070682977 | 4.2219 | 2025-05-12 23:08:05.47 | on_bicycle | 100 | 3.8087744865754 | |
| 72708 | 250512_784703_16652698_1853 | 784703 | (not set) | (not set) | 39.015939681679 | -77.017327419992 | 14.5818 | 2025-05-12 23:08:09.349 | unknown | 100 | 12.436632185038 | |
| 72709 | 250512_780972_16653070_1853 | 780972 | (not set) | (not set) | 38.867794479835 | -77.00864788546 | 1.0671 | 2025-05-12 23:08:11.435 | in_vehicle | 100 | -0.44703925898772 | |
| 72710 | 250512_780972_16653070_1853 | 780972 | (not set) | (not set) | 38.872307939065 | -77.020138661613 | 1.0671 | 2025-05-12 23:08:17.184 | in_vehicle | 100 | -0.44703925898772 | |
| 72711 | 250512_781333_16649006_1851 | 781333 | (not set) | (not set) | 38.935047558694 | -77.028467237693 | 2.523 | 2025-05-12 23:08:19.272 | on_bicycle | 100 | 3.0801004944254 | |
| 72712 | 250512_777589_16645215_1755 | 777589 | (not set) | (not set) | 38.799522192846 | -77.131003944525 | 20.7444 | 2025-05-12 23:08:21.909 | in_vehicle | 100 | 0 | |
| 72713 | 250512_784703_16652698_1853 | 784703 | (not set) | (not set) | 39.016431764124 | -77.021445079041 | 14.806 | 2025-05-12 23:08:22.304 | unknown | 100 | 12.146056666696 | |
| 72714 | 250512_784703_16652698_1853 | 784703 | (not set) | (not set) | 39.016485587966 | -77.02175264078 | 14.823 | 2025-05-12 23:08:23.201 | unknown | 100 | 12.239934911084 | |
| 72715 | 250512_780724_16648401_1846 | 780724 | (not set) | (not set) | 38.923811900581 | -77.107150714062 | 4.3188 | 2025-05-12 23:08:24.447 | on_bicycle | 100 | 3.8177152717552 | |
| 72716 | 250512_783396_16651128_1742 | 783396 | (not set) | (not set) | 39.3229357 | -76.6186034 | 1.6468 | 2025-05-12 23:08:26.149 | walking | 100 | 0.76443713286901 | |
| 72717 | 250512_783396_16651128_1742 | 783396 | (not set) | (not set) | 39.3229861 | -76.6186079 | 1.6787 | 2025-05-12 23:08:29.248 | walking | 100 | 0.61244378481318 | |
| 72718 | 250512_784703_16652698_1853 | 784703 | (not set) | (not set) | 39.016942051618 | -77.025025691197 | 15.0019 | 2025-05-12 23:08:33.332 | unknown | 100 | 13.183187747548 | |
| 72719 | 250512_775368_16642832_1856 | 775368 | (not set) | (not set) | 38.933849405 | -77.072378073891 | 1.5114 | 2025-05-12 23:08:36.475 | in_vehicle | 100 | 3.679133101469 | |
| 72720 | 250512_781333_16649006_1851 | 781333 | (not set) | (not set) | 38.935968290766 | -77.028502243075 | 2.5865 | 2025-05-12 23:08:37.269 | on_bicycle | 100 | 1.9490911691865 |